Time,TemperatureF,DewpointF,PressureIn,WindDirection,WindDirectionDegrees,WindSpeedMPH,WindSpeedGustMPH,Humidity,HourlyPrecipIn,Conditions,Clouds,dailyrainin,SolarRadiationWatts/m^2,SoftwareType,DateUTC
2013-01-27 00:00:00,59.8,54.6,29.92,East,100,1.0,4.0,83,0.00,CLR,SCT,0.00,0.0,WeatherDisplay:10.37,2013-01-27 10:00:00,
2013-01-27 00:10:00,59.7,54.5,29.92,East,100,2.0,5.0,83,0.00,CLR,SCT,0.00,0.0,WeatherDisplay:10.37,2013-01-27 10:10:00,
2013-01-27 00:20:00,59.7,54.5,29.92,East,92,1.0,4.0,83,0.00,CLR,SCT,0.00,0.0,WeatherDisplay:10.37,2013-01-27 10:20:00,
2013-01-27 00:30:00,60.0,55.1,29.92,East,96,1.0,3.0,84,0.00,CLR,SCT,0.00,0.0,WeatherDisplay:10.37,2013-01-27 10:30:00,
2013-01-27 00:40:00,60.2,55.0,29.91,ESE,115,2.0,6.0,83,0.00,CLR,SCT,0.00,0.0,WeatherDisplay:10.37,2013-01-27 10:40:00,
2013-01-27 00:50:00,60.5,54.6,29.92,ESE,111,2.0,6.0,81,0.00,CLR,SCT,0.00,0.0,WeatherDisplay:10.37,2013-01-27 10:50:00,
2013-01-27 01:00:00,60.3,54.5,29.91,ESE,105,1.0,3.0,81,0.00,CLR,SCT,0.00,0.0,WeatherDisplay:10.37,2013-01-27 11:00:00,
2013-01-27 01:10:00,60.0,54.5,29.91,ESE,105,1.0,6.0,82,0.00,CLR,SCT,0.00,0.0,WeatherDisplay:10.37,2013-01-27 11:10:00,
2013-01-27 01:20:00,59.8,54.0,29.90,ESE,106,1.0,3.0,81,0.00,CLR,SCT,0.00,0.0,WeatherDisplay:10.37,2013-01-27 11:20:00,
2013-01-27 01:30:00,59.6,53.8,29.90,ESE,111,2.0,4.0,81,0.00,CLR,SCT,0.00,0.0,WeatherDisplay:10.37,2013-01-27 11:30:00,
2013-01-27 01:40:00,59.2,53.7,29.90,ESE,113,1.0,3.0,82,0.00,CLR,SCT,0.00,0.0,WeatherDisplay:10.37,2013-01-27 11:40:00,
2013-01-27 01:50:00,58.8,53.3,29.89,ESE,112,2.0,4.0,82,0.00,CLR,SCT,0.00,0.0,WeatherDisplay:10.37,2013-01-27 11:50:00,
2013-01-27 02:00:00,58.7,53.3,29.89,ESE,108,2.0,4.0,82,0.00,CLR,SCT,0.00,0.0,WeatherDisplay:10.37,2013-01-27 12:00:00,
2013-01-27 02:10:00,58.5,53.0,29.89,East,93,3.0,5.0,82,0.00,CLR,SCT,0.00,0.0,WeatherDisplay:10.37,2013-01-27 12:10:00,
2013-01-27 02:20:00,58.2,53.1,29.88,East,94,1.0,3.0,83,0.00,CLR,SCT,0.00,0.0,WeatherDisplay:10.37,2013-01-27 12:20:00,
2013-01-27 02:30:00,57.9,52.8,29.89,ESE,106,0.0,4.0,83,0.00,CLR,SCT,0.00,0.0,WeatherDisplay:10.37,2013-01-27 12:30:00,
2013-01-27 02:40:00,57.8,52.7,29.89,ESE,106,1.0,2.0,83,0.00,CLR,SCT,0.00,0.0,WeatherDisplay:10.37,2013-01-27 12:40:00,
2013-01-27 02:50:00,57.6,52.8,29.88,ESE,106,1.0,3.0,84,0.00,CLR,SCT,0.00,0.0,WeatherDisplay:10.37,2013-01-27 12:50:00,
2013-01-27 03:00:00,57.4,52.6,29.88,ESE,106,0.0,2.0,84,0.00,CLR,SCT,0.00,0.0,WeatherDisplay:10.37,2013-01-27 13:00:00,
2013-01-27 03:10:00,57.3,52.8,29.88,ESE,106,0.0,2.0,85,0.00,CLR,SCT,0.00,0.0,WeatherDisplay:10.37,2013-01-27 13:10:00,
2013-01-27 03:20:00,57.1,52.7,29.88,ESE,106,1.0,3.0,85,0.00,CLR,SCT,0.00,0.0,WeatherDisplay:10.37,2013-01-27 13:20:00,
2013-01-27 03:30:00,57.2,52.7,29.87,ESE,106,1.0,3.0,85,0.00,CLR,SCT,0.00,0.0,WeatherDisplay:10.37,2013-01-27 13:30:00,
2013-01-27 03:40:00,57.1,52.6,29.87,ESE,106,0.0,3.0,85,0.00,CLR,SCT,0.00,0.0,WeatherDisplay:10.37,2013-01-27 13:40:00,
2013-01-27 03:50:00,57.0,52.5,29.88,ESE,106,0.0,2.0,85,0.00,CLR,SCT,0.00,0.0,WeatherDisplay:10.37,2013-01-27 13:50:00,
2013-01-27 04:00:00,56.7,52.2,29.88,ESE,106,0.0,2.0,85,0.00,CLR,SCT,0.00,0.0,WeatherDisplay:10.37,2013-01-27 14:00:00,
2013-01-27 04:10:00,56.4,51.9,29.88,ESE,106,1.0,3.0,85,0.00,CLR,SCT,0.00,0.0,WeatherDisplay:10.37,2013-01-27 14:10:00,
2013-01-27 04:20:00,56.2,51.7,29.88,ESE,106,0.0,2.0,85,0.00,CLR,SCT,0.00,0.0,WeatherDisplay:10.37,2013-01-27 14:20:00,
2013-01-27 04:30:00,56.0,51.9,29.88,ESE,107,1.0,3.0,86,0.00,CLR,SCT,0.00,0.0,WeatherDisplay:10.37,2013-01-27 14:30:00,
2013-01-27 04:40:00,55.9,51.8,29.88,ESE,112,2.0,3.0,86,0.00,CLR,SCT,0.00,0.0,WeatherDisplay:10.37,2013-01-27 14:40:00,
2013-01-27 04:50:00,55.8,52.0,29.88,ESE,117,2.0,4.0,87,0.00,CLR,SCT,0.00,0.0,WeatherDisplay:10.37,2013-01-27 14:50:00,
2013-01-27 05:00:00,55.9,52.1,29.88,SE,139,2.0,4.0,87,0.00,CLR,SCT,0.00,0.0,WeatherDisplay:10.37,2013-01-27 15:00:00,
2013-01-27 05:10:00,56.2,52.4,29.88,SE,142,1.0,3.0,87,0.00,CLR,SCT,0.00,0.0,WeatherDisplay:10.37,2013-01-27 15:10:00,
2013-01-27 05:20:00,56.5,53.0,29.89,SSE,149,2.0,5.0,88,0.00,CLR,SCT,0.00,0.0,WeatherDisplay:10.37,2013-01-27 15:20:00,
2013-01-27 05:30:00,56.9,53.1,29.89,SSE,155,3.0,4.0,87,0.00,CLR,SCT,0.00,0.0,WeatherDisplay:10.37,2013-01-27 15:30:00,
2013-01-27 05:40:00,57.2,53.4,29.89,SSE,156,1.0,4.0,87,0.00,CLR,SCT,0.00,0.0,WeatherDisplay:10.37,2013-01-27 15:40:00,
2013-01-27 05:50:00,57.4,53.2,29.89,SSE,159,2.0,4.0,86,0.00,CLR,SCT,0.00,0.0,WeatherDisplay:10.37,2013-01-27 15:50:00,
2013-01-27 06:00:00,57.8,53.3,29.90,SSE,162,3.0,6.0,85,0.00,CLR,SCT,0.00,0.0,WeatherDisplay:10.37,2013-01-27 16:00:00,
2013-01-27 06:10:00,58.1,53.3,29.90,SSE,163,2.0,4.0,84,0.00,CLR,SCT,0.00,0.0,WeatherDisplay:10.37,2013-01-27 16:10:00,
2013-01-27 06:20:00,58.0,53.2,29.91,SSE,163,0.0,4.0,84,0.00,CLR,SCT,0.00,0.0,WeatherDisplay:10.37,2013-01-27 16:20:00,
2013-01-27 06:30:00,57.8,53.3,29.91,SSE,163,0.0,2.0,85,0.00,CLR,SCT,0.00,0.0,WeatherDisplay:10.37,2013-01-27 16:30:00,
2013-01-27 06:40:00,57.5,53.0,29.91,SSE,163,0.0,2.0,85,0.00,CLR,SCT,0.00,0.0,WeatherDisplay:10.37,2013-01-27 16:40:00,
2013-01-27 06:50:00,57.1,52.6,29.92,SSE,163,0.0,2.0,85,0.00,CLR,SCT,0.00,0.0,WeatherDisplay:10.37,2013-01-27 16:50:00,
2013-01-27 07:00:00,56.9,52.8,29.92,SSE,163,0.0,2.0,86,0.00,CLR,SCT,0.00,0.0,WeatherDisplay:10.37,2013-01-27 17:00:00,
2013-01-27 07:10:00,56.9,53.4,29.92,SSE,166,2.0,4.0,88,0.00,FEW,SCT,0.00,6.8,WeatherDisplay:10.37,2013-01-27 17:10:00,
2013-01-27 07:20:00,57.1,53.9,29.92,SSE,166,3.0,4.0,89,0.00,FEW,SCT,0.00,10.0,WeatherDisplay:10.37,2013-01-27 17:20:00,
2013-01-27 07:30:00,58.0,54.5,29.93,SSE,166,2.0,5.0,88,0.00,FEW,SCT,0.00,14.6,WeatherDisplay:10.37,2013-01-27 17:30:00,
2013-01-27 07:40:00,58.9,55.1,29.93,SSE,163,2.0,5.0,87,0.00,FEW,SCT,0.00,20.0,WeatherDisplay:10.37,2013-01-27 17:40:00,
2013-01-27 07:50:00,59.8,55.6,29.93,South,171,1.0,5.0,86,0.00,FEW,SCT,0.00,22.3,WeatherDisplay:10.37,2013-01-27 17:50:00,
2013-01-27 08:00:00,60.3,55.8,29.93,South,171,3.0,4.0,85,0.00,FEW,SCT,0.00,26.9,WeatherDisplay:10.37,2013-01-27 18:00:00,
2013-01-27 08:10:00,61.1,56.3,29.94,SSE,162,1.0,5.0,84,0.00,FEW,SCT,0.00,35.5,WeatherDisplay:10.37,2013-01-27 18:10:00,
2013-01-27 08:20:00,62.7,57.1,29.94,SSE,167,2.0,6.0,82,0.00,FEW,SCT,0.00,210.0,WeatherDisplay:10.37,2013-01-27 18:20:00,
2013-01-27 08:30:00,64.4,57.8,29.94,South,173,1.0,4.0,79,0.00,FEW,SCT,0.00,232.3,WeatherDisplay:10.37,2013-01-27 18:30:00,
2013-01-27 08:40:00,66.4,58.2,29.94,South,172,2.0,4.0,75,0.00,FEW,SCT,0.00,244.6,WeatherDisplay:10.37,2013-01-27 18:40:00,
2013-01-27 08:50:00,68.3,58.5,29.94,South,174,2.0,5.0,71,0.00,FEW,SCT,0.00,254.6,WeatherDisplay:10.37,2013-01-27 18:50:00,
2013-01-27 09:00:00,69.6,59.4,29.94,South,178,2.0,5.0,70,0.00,FEW,SCT,0.00,270.1,WeatherDisplay:10.37,2013-01-27 19:00:00,
2013-01-27 09:10:00,70.4,59.8,29.94,SSW,200,2.0,6.0,69,0.00,FEW,SCT,0.00,274.7,WeatherDisplay:10.37,2013-01-27 19:10:00,
2013-01-27 09:20:00,71.1,59.6,29.94,SW,225,3.0,8.0,67,0.00,FEW,SCT,0.00,289.2,WeatherDisplay:10.37,2013-01-27 19:20:00,
2013-01-27 09:30:00,71.4,59.9,29.94,SW,218,3.0,7.0,67,0.00,FEW,SCT,0.00,304.7,WeatherDisplay:10.37,2013-01-27 19:30:00,
2013-01-27 09:40:00,71.6,60.5,29.94,SW,226,3.0,7.0,68,0.00,FEW,SCT,0.00,304.7,WeatherDisplay:10.37,2013-01-27 19:40:00,
2013-01-27 09:50:00,72.4,60.4,29.94,SSW,196,1.0,6.0,66,0.00,FEW,SCT,0.00,311.1,WeatherDisplay:10.37,2013-01-27 19:50:00,
2013-01-27 10:00:00,73.8,60.8,29.94,SE,130,6.0,7.0,64,0.00,FEW,SCT,0.00,322.5,WeatherDisplay:10.37,2013-01-27 20:00:00,
2013-01-27 10:10:00,74.3,60.9,29.94,South,189,2.0,7.0,63,0.00,CLR,SCT,0.00,343.4,WeatherDisplay:10.37,2013-01-27 20:10:00,
2013-01-27 10:20:00,75.3,61.0,29.94,SSE,151,2.0,6.0,61,0.00,CLR,SCT,0.00,344.8,WeatherDisplay:10.37,2013-01-27 20:20:00,
2013-01-27 10:30:00,75.5,60.2,29.93,SSW,202,3.0,5.0,59,0.00,CLR,SCT,0.00,327.0,WeatherDisplay:10.37,2013-01-27 20:30:00,
2013-01-27 10:40:00,75.4,61.1,29.93,SW,227,2.0,5.0,61,0.00,CLR,SCT,0.00,348.0,WeatherDisplay:10.37,2013-01-27 20:40:00,
2013-01-27 10:50:00,75.1,60.3,29.93,WSW,239,0.0,6.0,60,0.00,CLR,SCT,0.00,242.3,WeatherDisplay:10.37,2013-01-27 20:50:00,
2013-01-27 11:00:00,74.2,60.8,29.92,SW,223,5.0,8.0,63,0.00,CLR,SCT,0.00,76.5,WeatherDisplay:10.37,2013-01-27 21:00:00,
2013-01-27 11:10:00,74.2,61.3,29.92,WSW,250,2.0,8.0,64,0.00,FEW,SCT,0.00,111.1,WeatherDisplay:10.37,2013-01-27 21:10:00,
2013-01-27 11:20:00,74.5,61.5,29.92,WSW,256,6.0,9.0,64,0.00,FEW,SCT,0.00,297.9,WeatherDisplay:10.37,2013-01-27 21:20:00,
2013-01-27 11:30:00,74.2,62.5,29.91,WSW,254,3.0,12.0,67,0.00,FEW,SCT,0.00,399.0,WeatherDisplay:10.37,2013-01-27 21:30:00,
2013-01-27 11:40:00,74.2,63.0,29.91,WSW,258,5.0,10.0,68,0.00,FEW,SCT,0.00,390.4,WeatherDisplay:10.37,2013-01-27 21:40:00,
2013-01-27 11:50:00,75.0,62.9,29.90,West,269,7.0,10.0,66,0.00,FEW,SCT,0.00,94.3,WeatherDisplay:10.37,2013-01-27 21:50:00,
2013-01-27 12:00:00,74.0,63.2,29.90,West,277,3.0,9.0,69,0.00,FEW,SCT,0.00,378.1,WeatherDisplay:10.37,2013-01-27 22:00:00,
2013-01-27 12:10:00,74.8,62.2,29.89,West,275,7.0,15.0,65,0.00,-RA,SCT,0.00,108.0,WeatherDisplay:10.37,2013-01-27 22:10:00,
2013-01-27 12:20:00,74.8,61.8,29.89,West,263,12.0,18.0,64,0.00,-RA,SCT,0.00,385.8,WeatherDisplay:10.37,2013-01-27 22:20:00,
2013-01-27 12:30:00,76.0,62.5,29.88,West,264,13.0,17.0,63,0.00,-RA,SCT,0.00,81.1,WeatherDisplay:10.37,2013-01-27 22:30:00,
2013-01-27 12:40:00,76.7,62.2,29.87,West,265,12.0,17.0,61,0.00,-RA,SCT,0.00,345.7,WeatherDisplay:10.37,2013-01-27 22:40:00,
2013-01-27 12:50:00,77.2,60.8,29.87,WSW,253,9.0,18.0,57,0.00,-RA,SCT,0.00,335.7,WeatherDisplay:10.37,2013-01-27 22:50:00,
2013-01-27 13:00:00,77.3,60.4,29.86,WSW,246,13.0,18.0,56,0.00,-RA,SCT,0.00,339.3,WeatherDisplay:10.37,2013-01-27 23:00:00,
2013-01-27 13:10:00,76.8,60.9,29.86,WSW,257,12.0,20.0,58,0.00,CLR,SCT,0.00,335.7,WeatherDisplay:10.37,2013-01-27 23:10:00,
2013-01-27 13:20:00,77.6,60.7,29.85,WSW,248,12.0,16.0,56,0.00,CLR,SCT,0.00,335.7,WeatherDisplay:10.37,2013-01-27 23:20:00,
2013-01-27 13:30:00,77.4,59.4,29.85,WSW,251,12.0,20.0,54,0.00,CLR,SCT,0.00,328.0,WeatherDisplay:10.37,2013-01-27 23:30:00,
2013-01-27 13:40:00,77.7,60.7,29.84,WSW,251,9.0,20.0,56,0.00,CLR,SCT,0.00,332.5,WeatherDisplay:10.37,2013-01-27 23:40:00,
2013-01-27 13:50:00,77.3,61.8,29.84,SW,227,9.0,20.0,59,0.00,CLR,SCT,0.00,108.0,WeatherDisplay:10.37,2013-01-27 23:50:00,
2013-01-27 14:00:00,76.5,62.5,29.84,WSW,237,10.0,17.0,62,0.00,CLR,SCT,0.00,162.2,WeatherDisplay:10.37,2013-01-28 00:00:00,
2013-01-27 14:10:00,76.2,61.8,29.84,WSW,251,13.0,22.0,61,0.00,FEW,SCT,0.00,358.0,WeatherDisplay:10.37,2013-01-28 00:10:00,
2013-01-27 14:20:00,76.3,62.3,29.83,WSW,254,12.0,23.0,62,0.00,FEW,SCT,0.00,327.0,WeatherDisplay:10.37,2013-01-28 00:20:00,
2013-01-27 14:30:00,76.6,61.7,29.83,SW,229,8.0,20.0,60,0.00,FEW,SCT,0.00,322.5,WeatherDisplay:10.37,2013-01-28 00:30:00,
2013-01-27 14:40:00,76.3,62.3,29.82,WSW,245,14.0,21.0,62,0.00,FEW,SCT,0.00,314.8,WeatherDisplay:10.37,2013-01-28 00:40:00,
2013-01-27 14:50:00,76.6,62.6,29.82,SW,227,9.0,20.0,62,0.00,FEW,SCT,0.00,314.8,WeatherDisplay:10.37,2013-01-28 00:50:00,
2013-01-27 15:00:00,76.7,62.2,29.82,WSW,238,9.0,20.0,61,0.00,FEW,SCT,0.00,312.5,WeatherDisplay:10.37,2013-01-28 01:00:00,
2013-01-27 15:10:00,76.5,62.0,29.82,SW,234,9.0,18.0,61,0.00,CLR,SCT,0.00,313.4,WeatherDisplay:10.37,2013-01-28 01:10:00,
2013-01-27 15:20:00,76.6,62.1,29.82,WSW,238,10.0,16.0,61,0.00,CLR,SCT,0.00,204.5,WeatherDisplay:10.37,2013-01-28 01:20:00,
2013-01-27 15:30:00,76.0,62.0,29.82,SW,235,12.0,20.0,62,0.00,CLR,SCT,0.00,355.7,WeatherDisplay:10.37,2013-01-28 01:30:00,
2013-01-27 15:40:00,75.7,63.1,29.82,SW,233,13.0,21.0,65,0.00,CLR,SCT,0.00,343.4,WeatherDisplay:10.37,2013-01-28 01:40:00,
2013-01-27 15:50:00,75.3,62.7,29.82,WSW,240,8.0,16.0,65,0.00,CLR,SCT,0.00,159.0,WeatherDisplay:10.37,2013-01-28 01:50:00,
2013-01-27 16:00:00,75.3,62.7,29.83,WSW,237,12.0,20.0,65,0.00,CLR,SCT,0.00,314.8,WeatherDisplay:10.37,2013-01-28 02:00:00,
2013-01-27 16:10:00,74.9,63.7,29.83,SW,232,12.0,17.0,68,0.00,CLR,SCT,0.00,97.9,WeatherDisplay:10.37,2013-01-28 02:10:00,
2013-01-27 16:20:00,73.5,63.9,29.83,WSW,247,9.0,16.0,72,0.00,CLR,SCT,0.00,307.0,WeatherDisplay:10.37,2013-01-28 02:20:00,
2013-01-27 16:30:00,73.4,63.4,29.83,SW,234,9.0,16.0,71,0.00,CLR,SCT,0.00,323.4,WeatherDisplay:10.37,2013-01-28 02:30:00,
2013-01-27 16:40:00,74.1,63.2,29.83,SW,236,10.0,14.0,69,0.00,SCT,SCT,0.00,104.3,WeatherDisplay:10.37,2013-01-28 02:40:00,
2013-01-27 16:50:00,73.2,63.3,29.83,West,260,9.0,15.0,71,0.00,SCT,SCT,0.00,233.7,WeatherDisplay:10.37,2013-01-28 02:50:00,
2013-01-27 17:00:00,73.4,62.6,29.84,SW,236,13.0,18.0,69,0.00,SCT,SCT,0.00,230.0,WeatherDisplay:10.37,2013-01-28 03:00:00,
2013-01-27 17:10:00,73.3,61.3,29.84,WSW,242,8.0,14.0,66,0.00,SCT,SCT,0.00,212.3,WeatherDisplay:10.37,2013-01-28 03:10:00,
2013-01-27 17:20:00,72.6,61.0,29.84,SW,232,9.0,13.0,67,0.00,-RA,SCT,0.00,184.5,WeatherDisplay:10.37,2013-01-28 03:20:00,
2013-01-27 17:30:00,71.8,60.6,29.84,SW,229,6.0,15.0,68,0.00,-RA,SCT,0.00,24.6,WeatherDisplay:10.37,2013-01-28 03:30:00,
2013-01-27 17:40:00,70.6,61.1,29.84,SW,221,10.0,14.0,72,0.00,-RA,SCT,0.00,18.7,WeatherDisplay:10.37,2013-01-28 03:40:00,
2013-01-27 17:50:00,69.8,61.5,29.84,SW,217,6.0,10.0,75,0.00,-RA,SCT,0.00,10.0,WeatherDisplay:10.37,2013-01-28 03:50:00,
2013-01-27 18:00:00,69.1,61.9,29.86,SW,229,5.0,10.0,78,0.00,-RA,SCT,0.00,5.5,WeatherDisplay:10.37,2013-01-28 04:00:00,
2013-01-27 18:10:00,68.5,62.1,29.86,SW,222,5.0,12.0,80,0.00,-RA,SCT,0.00,0.0,WeatherDisplay:10.37,2013-01-28 04:10:00,
2013-01-27 18:20:00,68.1,62.4,29.86,SW,218,2.0,7.0,82,0.00,-RA,SCT,0.00,0.0,WeatherDisplay:10.37,2013-01-28 04:20:00,
2013-01-27 18:30:00,67.9,62.2,29.86,SW,231,3.0,7.0,82,0.00,-RA,SCT,0.00,0.0,WeatherDisplay:10.37,2013-01-28 04:30:00,
2013-01-27 18:40:00,67.7,62.0,29.86,SW,232,0.0,5.0,82,0.00,-RA,SCT,0.00,0.0,WeatherDisplay:10.37,2013-01-28 04:40:00,
2013-01-27 18:50:00,67.4,62.1,29.86,SW,215,2.0,5.0,83,0.00,SCT,SCT,0.00,0.0,WeatherDisplay:10.37,2013-01-28 04:50:00,
2013-01-27 19:00:00,67.4,62.0,29.87,SSW,207,1.0,4.0,83,0.00,SCT,SCT,0.00,0.0,WeatherDisplay:10.37,2013-01-28 05:00:00,
2013-01-27 19:10:00,67.2,61.9,29.87,SSW,211,2.0,5.0,83,0.00,SCT,SCT,0.00,0.0,WeatherDisplay:10.37,2013-01-28 05:10:00,
2013-01-27 19:20:00,67.2,61.9,29.88,SSW,201,6.0,8.0,83,0.00,SCT,SCT,0.00,0.0,WeatherDisplay:10.37,2013-01-28 05:20:00,
2013-01-27 19:30:00,67.1,61.8,29.89,SSW,207,3.0,8.0,83,0.00,SCT,SCT,0.00,0.0,WeatherDisplay:10.37,2013-01-28 05:30:00,
2013-01-27 19:40:00,67.2,61.9,29.89,SSW,211,3.0,9.0,83,0.00,SCT,SCT,0.00,0.0,WeatherDisplay:10.37,2013-01-28 05:40:00,
2013-01-27 19:50:00,67.3,62.0,29.89,SSW,206,3.0,10.0,83,0.00,SCT,SCT,0.00,0.0,WeatherDisplay:10.37,2013-01-28 05:50:00,
2013-01-27 20:00:00,67.3,61.6,29.90,SW,217,6.0,9.0,82,0.00,SCT,SCT,0.00,0.0,WeatherDisplay:10.37,2013-01-28 06:00:00,
2013-01-27 20:10:00,67.3,61.6,29.90,SSW,211,3.0,9.0,82,0.00,SCT,SCT,0.00,0.0,WeatherDisplay:10.37,2013-01-28 06:10:00,
2013-01-27 20:20:00,67.2,61.5,29.89,SSW,197,3.0,6.0,82,0.00,SCT,SCT,0.00,0.0,WeatherDisplay:10.37,2013-01-28 06:20:00,
2013-01-27 20:30:00,67.1,61.8,29.90,South,184,2.0,7.0,83,0.00,SCT,SCT,0.00,0.0,WeatherDisplay:10.37,2013-01-28 06:30:00,
2013-01-27 20:40:00,67.0,62.0,29.90,SSW,207,1.0,5.0,84,0.00,SCT,SCT,0.00,0.0,WeatherDisplay:10.37,2013-01-28 06:40:00,
2013-01-27 20:50:00,66.9,62.2,29.91,SSW,210,3.0,7.0,85,0.00,SCT,SCT,0.00,0.0,WeatherDisplay:10.37,2013-01-28 06:50:00,
2013-01-27 21:00:00,67.0,62.7,29.92,SW,221,3.0,9.0,86,0.00,SCT,SCT,0.00,0.0,WeatherDisplay:10.37,2013-01-28 07:00:00,
2013-01-27 21:10:00,67.2,62.9,29.91,South,189,2.0,6.0,86,0.00,SCT,SCT,0.00,0.0,WeatherDisplay:10.37,2013-01-28 07:10:00,
2013-01-27 21:20:00,67.1,62.8,29.91,SSW,201,3.0,5.0,86,0.00,SCT,SCT,0.00,0.0,WeatherDisplay:10.37,2013-01-28 07:20:00,
2013-01-27 21:30:00,67.0,62.3,29.92,SW,235,3.0,6.0,85,0.00,SCT,SCT,0.00,0.0,WeatherDisplay:10.37,2013-01-28 07:30:00,
2013-01-27 21:40:00,66.8,62.1,29.91,WSW,254,1.0,5.0,85,0.00,SCT,SCT,0.00,0.0,WeatherDisplay:10.37,2013-01-28 07:40:00,
2013-01-27 21:50:00,66.6,61.9,29.91,WSW,254,0.0,2.0,85,0.00,SCT,SCT,0.00,0.0,WeatherDisplay:10.37,2013-01-28 07:50:00,
2013-01-27 22:00:00,66.3,62.0,29.91,SE,125,0.0,2.0,86,0.00,SCT,SCT,0.00,0.0,WeatherDisplay:10.37,2013-01-28 08:00:00,
2013-01-27 22:10:00,66.1,61.7,29.91,ESE,113,0.0,2.0,86,0.00,SCT,SCT,0.00,0.0,WeatherDisplay:10.37,2013-01-28 08:10:00,
2013-01-27 22:20:00,65.8,61.4,29.91,ESE,122,0.0,3.0,86,0.00,SCT,SCT,0.00,0.0,WeatherDisplay:10.37,2013-01-28 08:20:00,
2013-01-27 22:30:00,65.6,60.3,29.91,SW,219,2.0,7.0,83,0.00,SCT,SCT,0.00,0.0,WeatherDisplay:10.37,2013-01-28 08:30:00,
2013-01-27 22:40:00,66.1,60.1,29.91,SW,226,1.0,8.0,81,0.00,SCT,SCT,0.00,0.0,WeatherDisplay:10.37,2013-01-28 08:40:00,
2013-01-27 22:50:00,66.2,60.2,29.91,SW,222,0.0,1.0,81,0.00,SCT,SCT,0.00,0.0,WeatherDisplay:10.37,2013-01-28 08:50:00,
2013-01-27 23:00:00,66.1,60.8,29.91,SW,222,0.0,3.0,83,0.00,SCT,SCT,0.00,0.0,WeatherDisplay:10.37,2013-01-28 09:00:00,
2013-01-27 23:10:00,65.8,60.5,29.91,SSW,213,0.0,3.0,83,0.00,SCT,SCT,0.00,0.0,WeatherDisplay:10.37,2013-01-28 09:10:00,
2013-01-27 23:20:00,65.5,60.2,29.91,SSW,211,0.0,1.0,83,0.00,SCT,SCT,0.00,0.0,WeatherDisplay:10.37,2013-01-28 09:20:00,
2013-01-27 23:30:00,65.2,59.6,29.91,SSW,209,0.0,3.0,82,0.00,SCT,SCT,0.00,0.0,WeatherDisplay:10.37,2013-01-28 09:30:00,
2013-01-27 23:40:00,65.2,59.2,29.91,South,175,3.0,6.0,81,0.00,BKN,SCT,0.00,0.0,WeatherDisplay:10.37,2013-01-28 09:40:00,
2013-01-27 23:50:00,65.3,59.0,29.90,SSE,159,0.0,4.0,80,0.00,BKN,SCT,0.00,0.0,WeatherDisplay:10.37,2013-01-28 09:50:00,